createdAt,value
2018-11-26T00:00:17.358Z,5.40
2018-11-26T00:02:45.931Z,5.40
2018-11-26T00:05:14.460Z,5.40
2018-11-26T00:07:42.975Z,5.30
2018-11-26T00:10:22.601Z,5.30
2018-11-26T00:12:51.126Z,5.30
2018-11-26T00:15:19.629Z,5.40
2018-11-26T00:17:48.132Z,5.40
2018-11-26T00:20:16.621Z,5.40
2018-11-26T00:22:45.175Z,5.40
2018-11-26T00:25:13.663Z,5.50
2018-11-26T00:27:42.191Z,5.50
2018-11-26T00:30:10.723Z,5.50
2018-11-26T00:32:39.226Z,5.50
2018-11-26T00:35:07.730Z,5.50
2018-11-26T00:37:36.287Z,5.50
2018-11-26T00:40:05.288Z,5.50
2018-11-26T00:42:33.793Z,5.50
2018-11-26T00:45:02.289Z,5.50
2018-11-26T00:47:30.848Z,5.50
2018-11-26T00:49:59.334Z,5.40
2018-11-26T00:52:27.882Z,5.40
2018-11-26T00:54:56.424Z,5.40
2018-11-26T00:57:24.955Z,5.40
2018-11-26T00:59:53.486Z,5.40
2018-11-26T01:02:22.037Z,5.40
2018-11-26T01:04:50.523Z,5.50
2018-11-26T01:07:19.069Z,5.50
2018-11-26T01:09:47.582Z,5.50
2018-11-26T01:12:16.125Z,5.50
2018-11-26T01:14:44.626Z,5.50
2018-11-26T01:17:13.154Z,5.40
2018-11-26T01:19:41.625Z,5.40
2018-11-26T01:22:10.155Z,5.40
2018-11-26T01:24:38.639Z,5.40
2018-11-26T01:27:07.178Z,5.50
2018-11-26T01:29:35.677Z,5.50
2018-11-26T01:32:04.274Z,5.50
2018-11-26T01:34:32.763Z,5.50
2018-11-26T01:37:01.325Z,5.50
2018-11-26T01:39:29.831Z,5.50
2018-11-26T01:41:58.367Z,5.50
2018-11-26T01:44:26.924Z,5.50
2018-11-26T01:46:55.469Z,5.50
2018-11-26T01:49:23.973Z,5.50
2018-11-26T01:51:52.531Z,5.50
2018-11-26T01:54:21.117Z,5.40
2018-11-26T01:56:49.601Z,5.40
2018-11-26T01:59:18.131Z,5.50
2018-11-26T02:01:47.532Z,5.50
2018-11-26T02:04:16.024Z,5.50
2018-11-26T02:06:44.480Z,5.50
2018-11-26T02:09:13.019Z,5.50
2018-11-26T02:11:41.513Z,5.50
2018-11-26T02:14:10.050Z,5.60
2018-11-26T02:16:38.588Z,5.60
2018-11-26T02:19:07.174Z,5.60
2018-11-26T02:21:35.773Z,5.60
2018-11-26T02:24:04.315Z,5.60
2018-11-26T02:26:32.831Z,5.60
2018-11-26T02:29:01.383Z,5.50
2018-11-26T02:31:29.940Z,5.50
2018-11-26T02:33:58.496Z,5.50
2018-11-26T02:36:26.985Z,5.50
2018-11-26T02:38:55.569Z,5.60
2018-11-26T02:41:24.135Z,5.50
2018-11-26T02:43:52.669Z,5.50
2018-11-26T02:46:21.162Z,5.50
2018-11-26T02:48:49.687Z,5.50
2018-11-26T02:51:18.235Z,5.50
2018-11-26T02:53:46.799Z,5.40
2018-11-26T02:56:15.340Z,5.40
2018-11-26T02:58:43.867Z,5.40
2018-11-26T03:01:12.394Z,5.40
2018-11-26T03:03:40.955Z,5.40
2018-11-26T03:06:09.472Z,5.40
2018-11-26T03:08:38.093Z,5.50
2018-11-26T03:11:06.628Z,5.50
2018-11-26T03:13:35.163Z,5.50
2018-11-26T03:16:03.670Z,5.40
2018-11-26T03:18:32.217Z,5.50
2018-11-26T03:21:00.752Z,5.40
2018-11-26T03:23:29.271Z,5.40
2018-11-26T03:25:57.820Z,5.40
2018-11-26T03:28:26.356Z,5.30
2018-11-26T03:30:54.831Z,5.40
2018-11-26T03:33:23.348Z,5.40
2018-11-26T03:35:51.826Z,5.40
2018-11-26T03:38:29.673Z,5.40
2018-11-26T03:40:58.186Z,5.40
2018-11-26T03:43:26.738Z,5.40
2018-11-26T03:45:55.274Z,5.40
2018-11-26T03:48:23.783Z,5.40
2018-11-26T03:50:52.287Z,5.40
2018-11-26T03:53:20.817Z,5.40
2018-11-26T03:55:49.284Z,5.40
2018-11-26T03:58:17.792Z,5.40
2018-11-26T04:00:46.358Z,5.40
2018-11-26T04:03:14.891Z,5.40
2018-11-26T04:05:43.375Z,5.40
2018-11-26T04:08:11.873Z,5.30
2018-11-26T04:10:40.372Z,5.40
2018-11-26T04:13:08.862Z,5.40
2018-11-26T04:15:37.369Z,5.40
2018-11-26T04:18:05.963Z,5.40
2018-11-26T04:20:34.936Z,5.40
2018-11-26T04:23:03.431Z,5.40
2018-11-26T04:25:32.000Z,5.40
2018-11-26T04:28:00.500Z,5.40
2018-11-26T04:30:29.044Z,5.40
2018-11-26T04:32:57.579Z,5.40
2018-11-26T04:35:26.091Z,5.40
2018-11-26T04:37:54.581Z,5.40
2018-11-26T04:40:23.142Z,5.40
2018-11-26T04:42:51.651Z,5.40
2018-11-26T04:45:20.219Z,5.40
2018-11-26T04:47:48.732Z,5.40
2018-11-26T04:50:17.268Z,5.40
2018-11-26T04:52:45.782Z,5.40
2018-11-26T04:55:14.337Z,5.40
2018-11-26T04:57:43.046Z,5.40
2018-11-26T05:00:14.381Z,5.30
2018-11-26T05:02:43.041Z,5.30
2018-11-26T05:05:12.721Z,5.30
2018-11-26T05:07:41.209Z,5.30
2018-11-26T05:10:11.896Z,5.30
2018-11-26T05:12:40.452Z,5.40
2018-11-26T05:15:11.352Z,5.40
2018-11-26T05:17:39.895Z,5.30
2018-11-26T05:20:11.049Z,5.30
2018-11-26T05:22:39.659Z,5.30
2018-11-26T05:25:09.566Z,5.30
2018-11-26T05:27:38.107Z,5.20
2018-11-26T05:30:10.827Z,5.20
2018-11-26T05:32:39.323Z,5.20
2018-11-26T05:35:09.192Z,5.20
2018-11-26T05:37:37.671Z,5.20
2018-11-26T05:40:08.888Z,5.20
2018-11-26T05:42:37.401Z,5.20
2018-11-26T05:45:09.101Z,5.20
2018-11-26T05:47:37.555Z,5.20
2018-11-26T05:50:08.447Z,5.20
2018-11-26T05:52:37.498Z,5.20
2018-11-26T05:55:06.793Z,5.20
2018-11-26T05:57:35.317Z,5.20
2018-11-26T06:00:03.970Z,5.20
2018-11-26T06:02:32.443Z,5.20
2018-11-26T06:05:00.975Z,5.10
2018-11-26T06:07:29.490Z,5.10
2018-11-26T06:09:58.850Z,5.10
2018-11-26T06:12:27.344Z,5.10
2018-11-26T06:14:55.863Z,5.10
2018-11-26T06:17:24.379Z,5.10
2018-11-26T06:19:52.893Z,5.10
2018-11-26T06:22:21.474Z,5.10
2018-11-26T06:24:49.981Z,5.10
2018-11-26T06:27:18.491Z,5.10
2018-11-26T06:29:47.037Z,5.10
2018-11-26T06:32:15.535Z,5.10
2018-11-26T06:34:44.135Z,5.00
2018-11-26T06:37:12.640Z,5.10
2018-11-26T06:39:41.273Z,5.10
2018-11-26T06:42:09.766Z,5.10
2018-11-26T06:44:38.377Z,5.00
2018-11-26T06:47:06.856Z,5.00
2018-11-26T06:49:35.391Z,5.00
2018-11-26T06:52:03.905Z,5.00
2018-11-26T06:54:32.416Z,4.90
2018-11-26T06:57:00.923Z,5.00
2018-11-26T06:59:29.449Z,5.00
2018-11-26T07:01:57.943Z,5.00
2018-11-26T07:04:26.555Z,4.90
2018-11-26T07:06:55.095Z,4.90
2018-11-26T07:09:23.555Z,4.90
2018-11-26T07:11:52.052Z,5.00
2018-11-26T07:14:20.550Z,5.00
2018-11-26T07:16:49.199Z,5.00
2018-11-26T07:19:17.749Z,5.00
2018-11-26T07:21:46.275Z,5.00
2018-11-26T07:24:14.736Z,5.00
2018-11-26T07:26:43.264Z,4.90
2018-11-26T07:29:11.720Z,4.90
2018-11-26T07:31:40.236Z,4.90
2018-11-26T07:34:08.735Z,4.80
2018-11-26T07:36:37.237Z,4.80
2018-11-26T07:39:08.543Z,4.80
2018-11-26T07:41:37.035Z,4.80
2018-11-26T07:44:08.358Z,4.80
2018-11-26T07:46:36.896Z,4.80
2018-11-26T07:49:06.055Z,4.90
2018-11-26T07:51:34.555Z,4.90
2018-11-26T07:54:03.071Z,4.80
2018-11-26T07:56:31.555Z,4.80
2018-11-26T07:59:00.041Z,4.90
2018-11-26T08:01:28.547Z,4.90
2018-11-26T08:03:57.026Z,4.90
2018-11-26T08:06:25.511Z,4.90
2018-11-26T08:08:54.100Z,5.00
2018-11-26T08:11:22.581Z,5.00
2018-11-26T08:13:51.051Z,5.10
2018-11-26T08:16:19.564Z,5.10
2018-11-26T08:18:48.047Z,5.10
2018-11-26T08:21:16.580Z,5.10
2018-11-26T08:23:45.073Z,5.10
2018-11-26T08:26:13.586Z,5.20
2018-11-26T08:28:42.055Z,5.20
2018-11-26T08:31:10.526Z,5.10
2018-11-26T08:33:39.004Z,5.20
2018-11-26T08:36:13.892Z,5.20
2018-11-26T08:38:47.637Z,5.20
2018-11-26T08:41:18.732Z,5.20
2018-11-26T08:43:52.525Z,5.30
2018-11-26T08:46:26.411Z,5.30
2018-11-26T08:49:00.266Z,5.40
2018-11-26T08:51:28.747Z,5.40
2018-11-26T08:53:57.255Z,5.40
2018-11-26T08:56:25.762Z,5.30
2018-11-26T08:58:54.284Z,5.40
2018-11-26T09:01:28.023Z,5.30
2018-11-26T09:03:56.523Z,5.40
2018-11-26T09:06:25.113Z,5.50
2018-11-26T09:08:53.620Z,5.70
2018-11-26T09:11:22.196Z,5.80
2018-11-26T09:13:50.684Z,5.80
2018-11-26T09:16:19.234Z,5.80
2018-11-26T09:18:47.723Z,5.90
2018-11-26T09:21:16.258Z,5.90
2018-11-26T09:23:44.780Z,6.00
2018-11-26T09:26:13.335Z,6.10
2018-11-26T09:28:41.882Z,6.10
2018-11-26T09:31:10.408Z,6.10
2018-11-26T09:33:38.843Z,6.20
2018-11-26T09:36:07.411Z,6.20
2018-11-26T09:38:35.906Z,6.20
2018-11-26T09:41:04.443Z,6.30
2018-11-26T09:43:33.018Z,6.40
2018-11-26T09:46:01.448Z,6.50
2018-11-26T09:48:29.942Z,6.70
2018-11-26T09:50:58.395Z,6.80
2018-11-26T09:53:26.875Z,6.80
2018-11-26T09:55:55.294Z,6.80
2018-11-26T09:58:23.754Z,6.80
2018-11-26T10:00:52.242Z,6.70
2018-11-26T10:03:20.686Z,6.70
2018-11-26T10:05:49.185Z,6.60
2018-11-26T10:08:17.728Z,6.70
2018-11-26T10:10:46.242Z,6.80
2018-11-26T10:13:14.723Z,6.60
2018-11-26T10:15:43.171Z,6.70
2018-11-26T10:18:11.658Z,6.70
2018-11-26T10:20:40.111Z,6.80
2018-11-26T10:23:08.615Z,6.70
2018-11-26T10:25:37.065Z,6.60
2018-11-26T10:28:05.646Z,6.70
2018-11-26T10:30:34.165Z,6.60
2018-11-26T10:33:02.715Z,6.70
2018-11-26T10:35:31.187Z,6.60
2018-11-26T10:37:59.704Z,6.70
2018-11-26T10:40:28.267Z,6.70
2018-11-26T10:42:56.734Z,6.80
2018-11-26T10:45:25.525Z,6.90
2018-11-26T10:47:53.980Z,6.80
2018-11-26T10:50:24.358Z,6.80
2018-11-26T10:52:55.989Z,6.80
2018-11-26T10:55:34.077Z,6.80
2018-11-26T10:58:02.978Z,6.90
2018-11-26T11:00:36.906Z,6.90
2018-11-26T11:03:07.435Z,6.90
2018-11-26T11:05:37.030Z,6.90
2018-11-26T11:08:06.388Z,6.90
2018-11-26T11:10:34.818Z,7.00
2018-11-26T11:13:03.310Z,6.90
2018-11-26T11:15:31.817Z,6.80
2018-11-26T11:18:00.298Z,6.90
2018-11-26T11:20:29.459Z,7.00
2018-11-26T11:22:57.958Z,6.90
2018-11-26T11:25:26.442Z,6.90
2018-11-26T11:27:56.326Z,6.90
2018-11-26T11:30:26.008Z,6.80
2018-11-26T11:32:54.509Z,6.90
2018-11-26T11:35:23.003Z,6.80
2018-11-26T11:37:52.364Z,6.90
2018-11-26T11:40:23.973Z,6.80
2018-11-26T11:42:52.563Z,6.90
2018-11-26T11:45:21.500Z,6.90
2018-11-26T11:47:49.956Z,6.90
2018-11-26T11:50:20.991Z,6.80
2018-11-26T11:52:49.772Z,6.80
2018-11-26T11:55:23.029Z,6.70
2018-11-26T11:57:52.004Z,6.70
2018-11-26T12:00:38.733Z,6.70
2018-11-26T12:03:09.477Z,6.70
2018-11-26T12:05:37.975Z,6.70
2018-11-26T12:08:07.564Z,6.70
2018-11-26T12:10:36.047Z,6.60
2018-11-26T12:13:04.632Z,6.60
2018-11-26T12:15:33.058Z,6.50
2018-11-26T12:18:01.494Z,6.50
2018-11-26T12:20:29.928Z,6.60
2018-11-26T12:22:58.412Z,6.60
2018-11-26T12:25:26.860Z,6.60
2018-11-26T12:27:55.330Z,6.60
2018-11-26T12:30:26.460Z,6.50
2018-11-26T12:32:54.525Z,6.50
2018-11-26T12:35:22.976Z,6.50
2018-11-26T12:37:51.683Z,6.50
2018-11-26T12:40:25.147Z,6.50
2018-11-26T12:42:54.958Z,6.50
2018-11-26T12:45:25.379Z,6.50
2018-11-26T12:47:53.884Z,6.50
2018-11-26T12:50:22.337Z,6.60
2018-11-26T12:52:50.820Z,6.60
2018-11-26T12:55:20.226Z,6.50
2018-11-26T12:57:49.348Z,6.60
2018-11-26T13:00:19.183Z,6.60
2018-11-26T13:02:50.693Z,6.60
2018-11-26T13:05:19.915Z,6.60
2018-11-26T13:07:48.343Z,6.60
2018-11-26T13:10:18.038Z,6.60
2018-11-26T13:12:47.220Z,6.60
2018-11-26T13:15:16.782Z,6.50
2018-11-26T13:17:45.267Z,6.50
2018-11-26T13:20:24.140Z,6.50
2018-11-26T13:22:52.954Z,6.50
2018-11-26T13:25:22.563Z,6.60
2018-11-26T13:27:52.069Z,6.50
2018-11-26T13:30:22.745Z,6.50
2018-11-26T13:32:52.595Z,6.50
2018-11-26T13:35:21.092Z,6.50
2018-11-26T13:37:49.571Z,6.50
2018-11-26T13:40:18.765Z,6.50
2018-11-26T13:42:47.366Z,6.50
2018-11-26T13:45:23.240Z,6.50
2018-11-26T13:47:51.740Z,6.50
2018-11-26T13:50:26.463Z,6.50
2018-11-26T13:52:55.111Z,6.50
2018-11-26T13:55:23.591Z,6.50
2018-11-26T13:57:52.025Z,6.50
2018-11-26T14:00:20.516Z,6.40
2018-11-26T14:02:48.975Z,6.30
2018-11-26T14:05:18.317Z,6.30
2018-11-26T14:07:47.309Z,6.20
2018-11-26T14:10:23.138Z,6.20
2018-11-26T14:12:59.037Z,6.20
2018-11-26T14:15:27.580Z,6.20
2018-11-26T14:17:56.049Z,6.20
2018-11-26T14:20:24.523Z,6.30
2018-11-26T14:22:52.959Z,6.30
2018-11-26T14:25:21.420Z,6.30
2018-11-26T14:27:49.924Z,6.30
2018-11-26T14:30:22.684Z,6.30
2018-11-26T14:32:51.189Z,6.30
2018-11-26T14:35:19.705Z,6.30
2018-11-26T14:37:50.623Z,6.30
2018-11-26T14:40:37.148Z,6.30
2018-11-26T14:43:05.651Z,6.30
2018-11-26T14:45:34.182Z,6.30
2018-11-26T14:48:02.649Z,6.30
2018-11-26T14:50:31.130Z,6.30
2018-11-26T14:53:03.324Z,6.30
2018-11-26T14:55:32.528Z,6.30
2018-11-26T14:58:01.113Z,6.30
2018-11-26T15:00:29.669Z,6.30
2018-11-26T15:02:58.180Z,6.30
2018-11-26T15:05:26.696Z,6.30
2018-11-26T15:07:55.196Z,6.40
2018-11-26T15:10:26.659Z,6.30
2018-11-26T15:12:55.149Z,6.40
2018-11-26T15:15:25.105Z,6.40
2018-11-26T15:17:53.636Z,6.40
2018-11-26T15:20:23.292Z,6.30
2018-11-26T15:22:52.665Z,6.30
2018-11-26T15:25:23.364Z,6.30
2018-11-26T15:27:53.004Z,6.30
2018-11-26T15:30:22.084Z,6.30
2018-11-26T15:32:50.596Z,6.30
2018-11-26T15:35:20.239Z,6.30
2018-11-26T15:37:48.724Z,6.30
2018-11-26T15:40:18.239Z,6.30
2018-11-26T15:42:46.739Z,6.30
2018-11-26T15:45:16.676Z,6.30
2018-11-26T15:47:45.247Z,6.30
2018-11-26T15:50:13.716Z,6.30
2018-11-26T15:52:42.201Z,6.30
2018-11-26T15:55:13.106Z,6.30
2018-11-26T15:57:41.668Z,6.20
2018-11-26T16:00:13.514Z,6.20
2018-11-26T16:02:42.028Z,6.20
2018-11-26T16:05:12.729Z,6.30
2018-11-26T16:07:41.849Z,6.30
2018-11-26T16:10:11.708Z,6.30
2018-11-26T16:12:40.416Z,6.20
2018-11-26T16:15:12.929Z,6.20
2018-11-26T16:17:41.477Z,6.20
2018-11-26T16:20:13.239Z,6.20
2018-11-26T16:22:41.888Z,6.20
2018-11-26T16:25:12.985Z,6.20
2018-11-26T16:27:41.456Z,6.10
2018-11-26T16:30:14.150Z,6.00
2018-11-26T16:32:44.009Z,6.10
2018-11-26T16:35:14.025Z,6.10
2018-11-26T16:37:42.540Z,6.00
2018-11-26T16:40:13.468Z,6.00
2018-11-26T16:42:41.973Z,6.00
2018-11-26T16:45:13.608Z,6.00
2018-11-26T16:47:42.266Z,6.00
2018-11-26T16:50:12.230Z,5.90
2018-11-26T16:52:40.803Z,5.90
2018-11-26T16:55:11.536Z,5.90
2018-11-26T16:57:40.130Z,6.00
2018-11-26T17:00:17.430Z,6.00
2018-11-26T17:02:46.551Z,6.00
2018-11-26T17:05:18.580Z,6.00
2018-11-26T17:07:47.079Z,5.90
2018-11-26T17:10:15.638Z,5.90
2018-11-26T17:12:44.145Z,5.90
2018-11-26T17:15:14.052Z,5.90
2018-11-26T17:17:42.672Z,5.90
2018-11-26T17:20:14.186Z,5.90
2018-11-26T17:22:42.857Z,5.90
2018-11-26T17:25:12.457Z,5.90
2018-11-26T17:27:41.431Z,5.90
2018-11-26T17:30:19.968Z,5.90
2018-11-26T17:32:52.732Z,5.90
2018-11-26T17:35:21.304Z,5.90
2018-11-26T17:37:49.846Z,5.90
2018-11-26T17:40:19.531Z,5.90
2018-11-26T17:42:48.129Z,5.90
2018-11-26T17:45:17.438Z,5.90
2018-11-26T17:47:53.880Z,5.90
2018-11-26T17:50:33.280Z,5.90
2018-11-26T17:53:01.838Z,5.80
2018-11-26T17:55:30.428Z,5.90
2018-11-26T17:57:58.973Z,5.90
2018-11-26T18:00:29.326Z,5.90
2018-11-26T18:02:57.833Z,5.90
2018-11-26T18:05:27.752Z,5.90
2018-11-26T18:08:03.469Z,5.90
2018-11-26T18:10:32.012Z,5.80
2018-11-26T18:13:00.783Z,5.80
2018-11-26T18:15:29.320Z,5.70
2018-11-26T18:17:57.812Z,5.80
2018-11-26T18:20:26.368Z,5.80
2018-11-26T18:22:55.287Z,5.80
2018-11-26T18:25:24.632Z,5.80
2018-11-26T18:27:59.818Z,5.80
2018-11-26T18:30:32.336Z,5.80
2018-11-26T18:33:00.832Z,5.80
2018-11-26T18:35:29.370Z,5.90
2018-11-26T18:37:57.886Z,5.80
2018-11-26T18:40:26.377Z,5.70
2018-11-26T18:42:54.894Z,5.70
2018-11-26T18:45:23.410Z,5.80
2018-11-26T18:47:51.971Z,5.70
2018-11-26T18:50:21.547Z,5.70
2018-11-26T18:52:50.760Z,5.70
2018-11-26T18:55:19.563Z,5.70
2018-11-26T18:57:48.135Z,5.70
2018-11-26T19:00:21.526Z,5.60
2018-11-26T19:02:50.490Z,5.60
2018-11-26T19:05:19.472Z,5.60
2018-11-26T19:07:48.028Z,5.50
2018-11-26T19:10:23.560Z,5.60
2018-11-26T19:12:56.953Z,5.50
2018-11-26T19:15:31.372Z,5.60
2018-11-26T19:18:09.854Z,5.50
2018-11-26T19:20:38.382Z,5.50
2018-11-26T19:23:06.976Z,5.50
2018-11-26T19:25:35.468Z,5.50
2018-11-26T19:28:04.104Z,5.40
2018-11-26T19:30:32.609Z,5.40
2018-11-26T19:33:01.136Z,5.40
2018-11-26T19:35:29.669Z,5.30
2018-11-26T19:37:58.197Z,5.30
2018-11-26T19:40:26.947Z,5.30
2018-11-26T19:42:55.765Z,5.30
2018-11-26T19:45:28.729Z,5.30
2018-11-26T19:47:57.523Z,5.30
2018-11-26T19:50:26.292Z,5.20
2018-11-26T19:52:55.249Z,5.20
2018-11-26T19:55:25.528Z,5.20
2018-11-26T19:57:56.568Z,5.10
2018-11-26T20:00:29.252Z,5.20
2018-11-26T20:03:11.591Z,5.20
2018-11-26T20:06:19.862Z,5.20
2018-11-26T20:08:51.707Z,5.30
2018-11-26T20:11:20.441Z,5.20
2018-11-26T20:13:49.192Z,5.20
2018-11-26T20:16:20.388Z,5.20
2018-11-26T20:18:49.057Z,5.20
2018-11-26T20:21:17.624Z,5.20
2018-11-26T20:23:46.332Z,5.20
2018-11-26T20:26:14.890Z,5.20
2018-11-26T20:28:43.542Z,5.20
2018-11-26T20:31:12.307Z,5.20
2018-11-26T20:33:40.936Z,5.20
2018-11-26T20:36:11.391Z,5.20
2018-11-26T20:38:39.980Z,5.20
2018-11-26T20:41:09.742Z,5.20
2018-11-26T20:43:38.316Z,5.20
2018-11-26T20:46:07.017Z,5.20
2018-11-26T20:48:35.733Z,5.20
2018-11-26T20:51:04.469Z,5.20
2018-11-26T20:53:32.980Z,5.20
2018-11-26T20:56:02.729Z,5.10
2018-11-26T20:58:31.359Z,5.10
2018-11-26T21:00:59.854Z,5.10
2018-11-26T21:03:32.221Z,5.10
2018-11-26T21:06:00.753Z,5.00
2018-11-26T21:08:29.313Z,4.90
2018-11-26T21:10:57.820Z,4.90
2018-11-26T21:13:26.381Z,4.90
2018-11-26T21:15:54.933Z,5.00
2018-11-26T21:18:23.496Z,4.90
2018-11-26T21:20:52.069Z,4.90
2018-11-26T21:23:25.242Z,4.80
2018-11-26T21:25:54.611Z,4.80
2018-11-26T21:28:23.106Z,4.80
2018-11-26T21:30:52.190Z,4.80
2018-11-26T21:33:20.210Z,4.80
2018-11-26T21:35:48.809Z,4.80
2018-11-26T21:38:17.417Z,4.90
2018-11-26T21:40:46.028Z,4.90
2018-11-26T21:43:14.568Z,4.80
2018-11-26T21:45:51.009Z,4.80
2018-11-26T21:48:19.525Z,4.80
2018-11-26T21:50:48.116Z,4.80
2018-11-26T21:53:16.651Z,4.80
2018-11-26T21:55:45.216Z,4.80
2018-11-26T21:58:13.714Z,4.80
2018-11-26T22:00:42.669Z,4.70
2018-11-26T22:03:12.320Z,4.70
2018-11-26T22:05:42.162Z,4.70
2018-11-26T22:08:11.280Z,4.70
2018-11-26T22:10:41.775Z,4.80
2018-11-26T22:13:14.229Z,4.80
2018-11-26T22:15:42.732Z,4.70
2018-11-26T22:18:11.278Z,4.80
2018-11-26T22:20:39.801Z,4.80
2018-11-26T22:23:08.636Z,4.80
2018-11-26T22:25:37.291Z,4.80
2018-11-26T22:28:07.974Z,4.80
2018-11-26T22:30:37.282Z,4.80
2018-11-26T22:33:06.101Z,4.70
2018-11-26T22:35:34.652Z,4.70
2018-11-26T22:38:03.227Z,4.70
2018-11-26T22:40:31.765Z,4.60
2018-11-26T22:43:00.274Z,4.70
2018-11-26T22:45:31.197Z,4.60
2018-11-26T22:48:04.191Z,4.60
2018-11-26T22:50:32.800Z,4.60
2018-11-26T22:53:01.376Z,4.60
2018-11-26T22:55:29.953Z,4.60
2018-11-26T22:57:58.437Z,4.60
2018-11-26T23:00:39.296Z,4.60
2018-11-26T23:03:07.837Z,4.60
2018-11-26T23:05:36.478Z,4.60
2018-11-26T23:08:05.405Z,4.50
2018-11-26T23:10:33.952Z,4.50
2018-11-26T23:13:02.517Z,4.50
2018-11-26T23:15:31.110Z,4.50
2018-11-26T23:17:59.588Z,4.50
2018-11-26T23:20:28.097Z,4.40
2018-11-26T23:22:56.632Z,4.40
2018-11-26T23:25:25.216Z,4.30
2018-11-26T23:27:53.690Z,4.30
2018-11-26T23:30:25.474Z,4.30
2018-11-26T23:32:58.281Z,4.30
2018-11-26T23:35:26.916Z,4.30
2018-11-26T23:37:55.532Z,4.40
2018-11-26T23:40:24.140Z,4.40
2018-11-26T23:42:52.714Z,4.50
2018-11-26T23:45:26.219Z,4.50
2018-11-26T23:47:54.748Z,4.50
2018-11-26T23:50:23.339Z,4.50
2018-11-26T23:52:51.874Z,4.50
2018-11-26T23:55:22.200Z,4.50
2018-11-26T23:57:51.011Z,4.50
